Al Kharj Air Base, Saudi Arabia

6:17 PM AST on October 25, 2014 (GMT +0300)
Prince Sultan Air Base | Change Station
CLOSE
Current Station
Airport
Location: Al Kharj Air Base,
Elevation: 1640 ft
Nearby Weather Stations

Elev 1640 ft 24.07 °N, 47.58 °E | Updated 17 minutes ago

Clear
Clear
90 °F
Feels Like 90 °F
N
6
Wind Variable Wind from NE

Today
High -- | Low -- °F
--% Chance of Precip.
Yesterday
High -- | Low -- °F
Precip. -- in
5:51 AM 5:15 PM
Waxing Crescent, 3% visible
Pressure 29.95 in
Visibility -9999.0 miles
Clouds
Dew Point 39 °F
Humidity 17%
Rainfall 0.00 in
Snow Depth Not available.
UV Not available.
Pollen Not available.
Air Quality Not available.
Flu Activity Not available.
METAR OEKJ 251500Z 04005KT CAVOK 32/04 Q1014

More Conditions Fewer Conditions

Pressure 29.95 in
Visibility -9999.0 miles
Clouds
Dew Point 39 °F
Humidity 17%
Rainfall 0.00 in
Snow Depth Not available.
UV Not available.
Pollen Not available.
Air Quality Not available.
Flu Activity Not available.
METAR OEKJ 251500Z 04005KT CAVOK 32/04 Q1014

More Conditions Fewer Conditions

10-Day Weather Forecast

Almanac

Astronomy

Oct. 25, 2014 Rise Set
Actual Time 5:51 AM AST 5:15 PM AST
Civil Twilight 5:28 AM AST 5:38 PM AST
Nautical Twilight 5:02 AM AST 6:05 PM AST
Astronomical Twilight 4:35 AM AST 6:31 PM AST
Moon 7:01 AM AST 6:29 PM AST
Length of Visible Light 12h 09m
Length of Day
11h 23m
Tomorrow will be 1m 16s shorter.
Waxing Crescent, 3% of the Moon is Illuminated
Today
Waxing Crescent
Oct 30
First Quarter
Nov 6
Full
Nov 14
Last Quarter
Nov 22
New

Today's Extremes

Country Highs Country Lows

Community

WunderPhotos

Upload Photos

1,764,869 photos uploaded!

Nearby

Snow Depth

Not available.

Earthquake Activity

City Distance Mag. Time & Date
No recent earthquake activity has been reported nearby.
Minimum magnitude displayed is 2.5.

Coastal Water Temperatures

Place Temperature
No Stations Reporting

Nearby Weather Stations